Terminal Aerodrome Forecast
Issued by NWS Wilmington, OH

Current Version | Previous Version | Text Only | Print | Product List | Glossary Off
Versions: 1 2 3 4 5 6 7 8 9 10 11 12 13 14 15 16 17 18 19

000
FTUS41 KILN 242300
TAFILN
TAF
KILN 242334Z 2500/2524 07005KT P6SM SCT200
     FM250700 00000KT 4SM BR SCT200
     FM251000 00000KT 2SM BR SCT200
     FM251300 12005KT P6SM SCT060
     FM252300 12004KT P6SM SCT250=

USA.gov is the U.S. government's official web portal to all federal, state and local government web resources and services.